Time;durP1;ratioP1;P1;durP2;ratioP2;P2;SDS_P1;SDS_P2;PMS_P1;PMS_P2;Temp;Humidity;BMP_temperature;BMP_pressure;BME280_temperature;BME280_humidity;BME280_pressure;Samples;Min_cycle;Max_cycle;Signal;HPM_P1;HPM_P2
2024/03/11 00:01:44;;;;;;;60.95;27.90;;;7.80;99.90;;;;;;5061043;28;20029;-74
2024/03/11 00:04:11;;;;;;;58.55;28.10;;;7.80;99.90;;;;;;5061082;28;20039;-76
2024/03/11 00:06:40;;;;;;;57.72;28.42;;;7.80;99.90;;;;;;5061001;28;20020;-74
2024/03/11 00:09:15;;;;;;;57.13;27.30;;;7.80;99.90;;;;;;5059028;28;20020;-73
2024/03/11 00:11:48;;;;;;;55.95;28.55;;;7.80;99.90;;;;;;5062274;28;20025;-71
2024/03/11 00:14:18;;;;;;;60.17;27.20;;;7.80;99.90;;;;;;5060424;28;20080;-73
2024/03/11 00:16:46;;;;;;;58.17;28.35;;;7.80;99.90;;;;;;5044050;28;20485;-73
2024/03/11 00:19:12;;;;;;;55.63;28.27;;;7.80;99.90;;;;;;5062689;28;20120;-72
2024/03/11 00:21:37;;;;;;;53.58;27.35;;;7.90;99.90;;;;;;5062004;28;20025;-74
2024/03/11 00:24:03;;;;;;;54.70;27.15;;;7.90;99.90;;;;;;5059324;28;20028;-74
2024/03/11 00:26:29;;;;;;;54.47;27.98;;;7.90;99.90;;;;;;5061855;28;20051;-74
2024/03/11 00:28:55;;;;;;;62.65;28.17;;;7.90;99.90;;;;;;5062017;28;20017;-74
2024/03/11 00:31:27;;;;;;;59.13;28.05;;;7.90;99.90;;;;;;5060301;28;20033;-72
2024/03/11 00:33:53;;;;;;;60.20;28.33;;;7.90;99.90;;;;;;5062271;28;20466;-72
2024/03/11 00:36:20;;;;;;;57.78;27.70;;;7.90;99.90;;;;;;5060328;28;20025;-74
2024/03/11 00:38:46;;;;;;;55.90;27.48;;;7.90;99.90;;;;;;5060739;28;20029;-75
2024/03/11 00:41:12;;;;;;;56.40;27.45;;;7.90;99.90;;;;;;5062121;28;20043;-73
2024/03/11 00:43:38;;;;;;;57.38;28.42;;;7.90;99.90;;;;;;5060476;28;20055;-73
2024/03/11 00:46:03;;;;;;;54.10;27.55;;;7.90;99.90;;;;;;5060380;28;20516;-73
2024/03/11 00:48:29;;;;;;;55.85;28.00;;;7.90;99.90;;;;;;5060410;28;20469;-74
2024/03/11 00:50:55;;;;;;;52.70;26.80;;;7.90;99.90;;;;;;5059947;28;20056;-74
2024/03/11 00:53:21;;;;;;;56.10;27.50;;;7.90;99.90;;;;;;5061740;28;20088;-74
2024/03/11 00:55:46;;;;;;;56.85;27.27;;;7.90;99.90;;;;;;5061710;28;20025;-73
2024/03/11 00:58:13;;;;;;;54.40;28.15;;;7.90;99.90;;;;;;5060104;28;20029;-75
2024/03/11 01:00:39;;;;;;;55.05;26.60;;;7.90;99.90;;;;;;5061739;28;20448;-73
2024/03/11 01:03:06;;;;;;;53.90;27.75;;;7.90;99.90;;;;;;5061761;28;20028;-73
2024/03/11 01:05:32;;;;;;;54.85;27.00;;;7.90;99.90;;;;;;5059848;28;20025;-72
2024/03/11 01:07:57;;;;;;;54.17;27.73;;;8.00;99.90;;;;;;5061574;28;20498;-73
2024/03/11 01:10:23;;;;;;;55.67;27.45;;;7.90;99.90;;;;;;5061130;28;20063;-73
2024/03/11 01:12:49;;;;;;;55.20;26.23;;;7.90;99.90;;;;;;5061144;28;20021;-74
2024/03/11 01:15:15;;;;;;;56.55;27.08;;;7.90;99.90;;;;;;5060271;28;20040;-73
2024/03/11 01:17:41;;;;;;;55.60;27.13;;;7.90;99.90;;;;;;5059942;28;20033;-73
2024/03/11 01:20:09;;;;;;;52.90;27.42;;;8.00;99.90;;;;;;5060930;28;20104;-73
2024/03/11 01:22:35;;;;;;;57.33;25.90;;;8.00;99.90;;;;;;5059623;28;20040;-72
2024/03/11 01:25:00;;;;;;;54.40;28.00;;;8.00;99.90;;;;;;5062110;28;20021;-74
2024/03/11 01:27:26;;;;;;;55.13;26.98;;;8.00;99.90;;;;;;5062984;28;20462;-75
2024/03/11 01:29:51;;;;;;;57.95;26.30;;;8.00;99.90;;;;;;5063677;28;20063;-73
2024/03/11 01:32:17;;;;;;;63.15;27.40;;;8.00;99.90;;;;;;5065057;28;20029;-75
2024/03/11 01:34:44;;;;;;;53.60;27.00;;;8.00;99.90;;;;;;5064978;28;20466;-74
2024/03/11 01:37:11;;;;;;;51.13;25.65;;;8.00;99.90;;;;;;5064086;28;20024;-75
2024/03/11 01:39:42;;;;;;;49.10;25.42;;;8.00;99.90;;;;;;5064771;28;20052;-73
2024/03/11 01:42:14;;;;;;;51.83;25.77;;;8.00;99.90;;;;;;5065555;28;20025;-74
2024/03/11 01:44:44;;;;;;;53.65;26.27;;;8.00;99.90;;;;;;5064025;28;20033;-73
2024/03/11 01:47:12;;;;;;;50.97;24.63;;;8.00;99.90;;;;;;5064699;28;20115;-74
2024/03/11 01:49:41;;;;;;;51.70;27.00;;;8.00;99.90;;;;;;5065162;28;20532;-72
2024/03/11 01:52:07;;;;;;;52.63;25.88;;;8.00;99.90;;;;;;5063612;28;20025;-73
2024/03/11 01:54:38;;;;;;;53.92;25.55;;;8.00;99.90;;;;;;5063225;28;20452;-73
2024/03/11 01:57:06;;;;;;;52.60;26.25;;;8.00;99.90;;;;;;5064763;28;20031;-74
2024/03/11 01:59:34;;;;;;;54.97;25.52;;;8.00;99.90;;;;;;5062159;28;20036;-73
2024/03/11 02:02:02;;;;;;;50.92;26.30;;;8.00;99.90;;;;;;5062614;28;20097;-74
2024/03/11 02:04:29;;;;;;;53.83;26.35;;;7.90;99.90;;;;;;5064335;28;20493;-75
2024/03/11 02:06:55;;;;;;;51.28;25.25;;;7.90;99.90;;;;;;5064649;28;20025;-73
2024/03/11 02:09:21;;;;;;;50.08;25.25;;;7.90;99.90;;;;;;5062714;28;20048;-74
2024/03/11 02:11:47;;;;;;;54.20;26.17;;;7.90;99.90;;;;;;5062150;28;20032;-73
2024/03/11 02:14:13;;;;;;;54.88;25.35;;;7.90;99.90;;;;;;5064784;28;20029;-73
2024/03/11 02:16:41;;;;;;;49.47;24.70;;;7.90;99.90;;;;;;5062783;28;20049;-74
2024/03/11 02:19:12;;;;;;;50.40;23.33;;;7.90;99.90;;;;;;5063510;28;20048;-74
2024/03/11 02:21:47;;;;;;;53.38;25.48;;;7.90;99.90;;;;;;5064750;28;20036;-75
2024/03/11 02:24:16;;;;;;;51.85;25.42;;;7.90;99.90;;;;;;5063810;28;20035;-73
2024/03/11 02:26:45;;;;;;;52.90;26.85;;;7.80;99.90;;;;;;5064994;28;20025;-75
2024/03/11 02:29:12;;;;;;;51.78;25.40;;;7.90;99.90;;;;;;5063474;28;20136;-74
2024/03/11 02:31:38;;;;;;;55.40;25.70;;;7.80;99.90;;;;;;5063522;28;20029;-73
2024/03/11 02:34:05;;;;;;;58.65;25.50;;;7.80;99.90;;;;;;5062667;28;20448;-74
2024/03/11 02:36:31;;;;;;;52.05;25.95;;;7.80;99.90;;;;;;5061207;28;20017;-74
2024/03/11 02:38:57;;;;;;;55.42;25.75;;;7.80;99.90;;;;;;5063306;28;20393;-74
2024/03/11 02:41:22;;;;;;;52.08;24.77;;;7.80;99.90;;;;;;5063263;28;20080;-75
2024/03/11 02:43:48;;;;;;;49.55;25.45;;;7.80;99.90;;;;;;5064234;28;20025;-75
2024/03/11 02:46:13;;;;;;;51.33;25.77;;;7.80;99.90;;;;;;5064825;28;20531;-72
2024/03/11 02:48:39;;;;;;;54.17;25.58;;;7.70;99.90;;;;;;5064025;28;20029;-76
2024/03/11 02:51:05;;;;;;;56.67;26.95;;;7.70;99.90;;;;;;5064186;28;20037;-73
2024/03/11 02:53:31;;;;;;;52.67;25.27;;;7.70;99.90;;;;;;5063001;28;20044;-74
2024/03/11 02:56:07;;;;;;;49.97;24.27;;;7.70;99.90;;;;;;5064409;28;20037;-75
2024/03/11 02:58:37;;;;;;;50.25;24.70;;;7.70;99.90;;;;;;5063964;28;20044;-74
2024/03/11 03:01:02;;;;;;;52.22;25.73;;;7.70;99.90;;;;;;5064129;28;20040;-74
2024/03/11 03:03:28;;;;;;;52.50;25.92;;;7.70;99.90;;;;;;5064333;28;20029;-75
2024/03/11 03:05:53;;;;;;;54.30;26.73;;;7.70;99.90;;;;;;5063958;28;20052;-74
2024/03/11 03:08:20;;;;;;;51.33;24.77;;;7.60;99.90;;;;;;5064160;28;20032;-75
2024/03/11 03:10:46;;;;;;;55.55;26.25;;;7.70;99.90;;;;;;5062404;28;20128;-74
2024/03/11 03:13:11;;;;;;;55.25;26.33;;;7.70;99.90;;;;;;5062692;28;20059;-73
2024/03/11 03:15:37;;;;;;;53.15;26.23;;;7.70;99.90;;;;;;5064048;28;20017;-72
2024/03/11 03:18:05;;;;;;;60.60;25.85;;;7.60;99.90;;;;;;5063745;28;20073;-73
2024/03/11 03:20:31;;;;;;;53.75;25.83;;;7.60;99.90;;;;;;5062342;28;20017;-73
2024/03/11 03:22:56;;;;;;;55.78;25.15;;;7.60;99.90;;;;;;5063922;28;20409;-74
2024/03/11 03:25:30;;;;;;;49.15;23.95;;;7.60;99.90;;;;;;5062157;28;20545;-73
2024/03/11 03:27:56;;;;;;;52.53;25.75;;;7.60;99.90;;;;;;5062715;28;20033;-74
2024/03/11 03:30:22;;;;;;;54.83;24.50;;;7.60;99.90;;;;;;5063558;28;20505;-73
2024/03/11 03:32:48;;;;;;;56.65;26.13;;;7.60;99.90;;;;;;5061955;28;20036;-73
2024/03/11 03:35:14;;;;;;;53.22;24.80;;;7.60;99.90;;;;;;5062568;28;20021;-74
2024/03/11 03:37:40;;;;;;;53.33;25.52;;;7.50;99.90;;;;;;5062491;28;20021;-74
2024/03/11 03:40:28;;;;;;;54.67;25.02;;;7.50;99.90;;;;;;5063308;28;20445;-75
2024/03/11 03:42:54;;;;;;;54.30;25.73;;;7.50;99.90;;;;;;5063239;28;20037;-74
2024/03/11 03:45:19;;;;;;;54.03;25.02;;;7.50;99.90;;;;;;5062851;28;20017;-75
2024/03/11 03:47:46;;;;;;;57.33;25.33;;;7.50;99.90;;;;;;5060841;28;20027;-74
2024/03/11 03:50:12;;;;;;;49.75;25.05;;;7.50;99.90;;;;;;5063620;28;20079;-73
2024/03/11 03:52:40;;;;;;;58.35;26.27;;;7.50;99.90;;;;;;5063073;28;20017;-75
2024/03/11 03:55:07;;;;;;;59.80;26.55;;;7.50;99.90;;;;;;5063119;28;20029;-74
2024/03/11 03:57:33;;;;;;;56.75;25.10;;;7.40;99.90;;;;;;5061684;28;20028;-74
2024/03/11 04:00:00;;;;;;;56.72;25.35;;;7.40;99.90;;;;;;5062946;28;20021;-74
2024/03/11 04:02:25;;;;;;;52.67;24.55;;;7.40;99.90;;;;;;5063049;28;20029;-74
2024/03/11 04:04:51;;;;;;;51.33;25.05;;;7.40;99.90;;;;;;5061945;28;20029;-72
2024/03/11 04:07:17;;;;;;;58.05;24.92;;;7.40;99.90;;;;;;5061422;28;20056;-74
2024/03/11 04:09:48;;;;;;;51.38;24.63;;;7.40;99.90;;;;;;5136066;27;20379;-72
2024/03/11 04:12:14;;;;;;;50.45;24.95;;;7.40;99.90;;;;;;5120228;28;20039;-74
2024/03/11 04:14:40;;;;;;;50.05;24.92;;;7.40;99.90;;;;;;5119544;28;20016;-74
2024/03/11 04:17:06;;;;;;;58.03;26.40;;;7.30;99.90;;;;;;5120121;28;20027;-73
2024/03/11 04:19:32;;;;;;;55.33;26.20;;;7.30;99.90;;;;;;5120082;28;20024;-74
2024/03/11 04:21:58;;;;;;;55.40;25.00;;;7.30;99.90;;;;;;5118610;28;20040;-75
2024/03/11 04:24:25;;;;;;;55.10;26.35;;;7.30;99.90;;;;;;5119899;28;20069;-73
2024/03/11 04:26:51;;;;;;;58.78;26.35;;;7.30;99.90;;;;;;5118588;28;20016;-73
2024/03/11 04:29:18;;;;;;;55.20;26.00;;;7.20;99.90;;;;;;5117952;28;20055;-73
2024/03/11 04:31:44;;;;;;;50.08;25.00;;;7.20;99.90;;;;;;5119439;28;20059;-73
2024/03/11 04:34:10;;;;;;;62.28;26.23;;;7.20;99.90;;;;;;5119906;28;20040;-75
2024/03/11 04:36:36;;;;;;;54.92;25.83;;;7.20;99.90;;;;;;5118138;28;20036;-73
2024/03/11 04:39:04;;;;;;;55.45;26.13;;;7.10;99.90;;;;;;5119840;28;20091;-73
2024/03/11 04:41:31;;;;;;;51.72;25.42;;;7.10;99.90;;;;;;5119500;28;20080;-73
2024/03/11 04:43:58;;;;;;;56.70;26.15;;;7.10;99.90;;;;;;5119104;28;20030;-73
2024/03/11 04:46:23;;;;;;;53.35;24.83;;;7.10;99.90;;;;;;5119426;28;20026;-73
2024/03/11 04:48:49;;;;;;;55.42;24.38;;;7.10;99.90;;;;;;5117976;28;20035;-74
2024/03/11 04:51:14;;;;;;;53.42;24.45;;;7.10;99.90;;;;;;5118246;28;20028;-73
2024/03/11 04:53:40;;;;;;;49.83;24.42;;;7.10;99.90;;;;;;5118119;28;20096;-74
2024/03/11 04:56:06;;;;;;;58.22;25.52;;;7.00;99.90;;;;;;5117281;28;20023;-74
2024/03/11 04:58:32;;;;;;;57.22;24.65;;;7.00;99.90;;;;;;5119281;28;20052;-74
2024/03/11 05:00:58;;;;;;;50.00;24.63;;;7.00;99.90;;;;;;5117996;28;20016;-72
2024/03/11 05:03:24;;;;;;;53.75;24.83;;;7.00;99.90;;;;;;5118922;28;20079;-73
2024/03/11 05:05:50;;;;;;;53.33;24.83;;;7.00;99.90;;;;;;5119278;28;20109;-74
2024/03/11 05:08:16;;;;;;;54.67;24.45;;;7.00;99.90;;;;;;5119068;28;20039;-73
2024/03/11 05:10:42;;;;;;;57.38;24.30;;;6.90;99.90;;;;;;5118378;28;20024;-72
2024/03/11 05:13:08;;;;;;;53.03;24.65;;;6.90;99.90;;;;;;5119276;28;20016;-72
2024/03/11 05:15:34;;;;;;;51.00;24.65;;;6.90;99.90;;;;;;5115329;28;20107;-74
2024/03/11 05:18:00;;;;;;;54.28;24.65;;;6.90;99.90;;;;;;5117262;28;20028;-72
2024/03/11 05:20:26;;;;;;;51.70;23.67;;;6.90;99.90;;;;;;5107600;28;20019;-72
2024/03/11 05:22:51;;;;;;;47.85;23.80;;;6.90;99.90;;;;;;5103363;28;20028;-72
2024/03/11 05:25:18;;;;;;;53.13;24.33;;;6.90;99.90;;;;;;5104756;28;20028;-71
2024/03/11 05:27:46;;;;;;;52.00;23.65;;;6.90;99.90;;;;;;5103913;28;20020;-72
2024/03/11 05:30:13;;;;;;;49.80;23.10;;;6.90;99.90;;;;;;5104938;28;20035;-73
2024/03/11 05:32:40;;;;;;;55.33;23.88;;;6.90;99.90;;;;;;5104789;28;20048;-73
2024/03/11 05:35:06;;;;;;;47.28;24.10;;;6.90;99.90;;;;;;5103142;28;20461;-72
2024/03/11 05:37:33;;;;;;;49.92;24.00;;;6.90;99.90;;;;;;5103815;28;20049;-72
2024/03/11 05:40:11;;;;;;;54.13;23.98;;;6.90;99.90;;;;;;5103088;28;20053;-72
2024/03/11 05:42:40;;;;;;;56.17;24.67;;;6.90;99.90;;;;;;5102717;28;20469;-72
2024/03/11 05:45:07;;;;;;;54.65;24.30;;;6.90;99.90;;;;;;5103451;28;20066;-73
2024/03/11 05:47:32;;;;;;;50.63;23.80;;;6.80;99.90;;;;;;5102786;28;20082;-72
2024/03/11 05:50:00;;;;;;;52.28;24.25;;;6.80;99.90;;;;;;5103890;28;20024;-71
2024/03/11 05:52:25;;;;;;;55.42;24.52;;;6.80;99.90;;;;;;5100120;28;20099;-72
2024/03/11 05:54:54;;;;;;;50.40;22.50;;;6.80;99.90;;;;;;5104557;28;20031;-71
2024/03/11 05:57:29;;;;;;;52.17;24.30;;;6.80;99.90;;;;;;5103125;28;20028;-71
2024/03/11 05:59:56;;;;;;;52.08;24.40;;;6.80;99.90;;;;;;5102495;28;20023;-71
2024/03/11 06:02:22;;;;;;;54.55;23.65;;;6.80;99.90;;;;;;5102597;28;20022;-71
2024/03/11 06:04:47;;;;;;;51.50;23.33;;;6.80;99.90;;;;;;5104490;28;20048;-74
2024/03/11 06:07:19;;;;;;;51.72;23.80;;;6.80;99.90;;;;;;5101980;28;20046;-73
2024/03/11 06:09:45;;;;;;;61.55;25.40;;;6.80;99.90;;;;;;5102204;28;20069;-73
2024/03/11 06:12:11;;;;;;;53.85;23.88;;;6.80;99.90;;;;;;5102240;28;20020;-72
2024/03/11 06:14:36;;;;;;;48.58;23.67;;;6.90;99.90;;;;;;5102519;28;20025;-72
2024/03/11 06:17:06;;;;;;;52.00;24.33;;;6.90;99.90;;;;;;5101608;28;20423;-73
2024/03/11 06:19:32;;;;;;;55.22;25.90;;;6.80;99.90;;;;;;5102162;28;20028;-72
2024/03/11 06:21:57;;;;;;;54.50;25.08;;;6.80;99.90;;;;;;5102417;28;20031;-72
2024/03/11 06:24:23;;;;;;;54.45;24.33;;;6.80;99.90;;;;;;5104154;28;20032;-73
2024/03/11 06:26:52;;;;;;;53.33;24.90;;;6.80;99.90;;;;;;5102902;28;20023;-73
2024/03/11 06:29:17;;;;;;;52.78;23.75;;;6.90;99.90;;;;;;5098283;28;20047;-73
2024/03/11 06:31:46;;;;;;;56.13;23.80;;;6.90;99.90;;;;;;5118381;28;20024;-73
2024/03/11 06:34:14;;;;;;;59.88;27.13;;;6.90;99.90;;;;;;5103448;28;20026;-73
2024/03/11 06:36:41;;;;;;;54.53;23.67;;;6.90;99.90;;;;;;5102270;28;20020;-73
2024/03/11 06:39:07;;;;;;;54.75;24.70;;;6.90;99.90;;;;;;5102449;28;20062;-72
2024/03/11 06:41:33;;;;;;;55.88;24.42;;;6.90;99.90;;;;;;5102086;28;20127;-72
2024/03/11 06:44:01;;;;;;;53.28;24.92;;;6.90;99.90;;;;;;5099784;28;20085;-72
2024/03/11 06:46:28;;;;;;;50.10;25.35;;;6.90;99.90;;;;;;5100602;28;20020;-72
2024/03/11 06:48:55;;;;;;;51.33;24.52;;;7.00;99.90;;;;;;5100245;28;20804;-72
2024/03/11 06:51:21;;;;;;;52.28;23.98;;;6.90;99.90;;;;;;5102555;28;20028;-73
2024/03/11 06:53:46;;;;;;;54.55;23.25;;;7.00;99.90;;;;;;5102379;28;20065;-73
2024/03/11 06:56:12;;;;;;;48.08;23.30;;;7.00;99.90;;;;;;5103314;28;20436;-72
2024/03/11 06:58:38;;;;;;;50.70;23.27;;;7.00;99.90;;;;;;5102457;28;20461;-72
2024/03/11 07:01:05;;;;;;;52.13;24.08;;;7.00;99.90;;;;;;5103347;28;20024;-72
2024/03/11 07:03:30;;;;;;;51.03;24.42;;;7.00;99.90;;;;;;5102872;28;20106;-72
2024/03/11 07:05:59;;;;;;;54.45;23.40;;;7.00;99.90;;;;;;5100759;28;20024;-73
2024/03/11 07:08:26;;;;;;;51.90;24.05;;;7.00;99.90;;;;;;5099740;28;20109;-72
2024/03/11 07:10:52;;;;;;;49.10;22.95;;;7.00;99.90;;;;;;5099223;28;20424;-72
2024/03/11 07:13:18;;;;;;;54.55;24.15;;;7.10;99.90;;;;;;5100670;28;20024;-71
2024/03/11 07:15:43;;;;;;;53.13;23.83;;;7.10;99.90;;;;;;5100539;28;20020;-71
2024/03/11 07:18:10;;;;;;;48.67;23.58;;;7.20;99.90;;;;;;5097314;28;20988;-72
2024/03/11 07:20:36;;;;;;;46.90;23.33;;;7.30;99.90;;;;;;5095579;28;20861;-71
2024/03/11 07:23:07;;;;;;;47.75;23.30;;;7.30;99.90;;;;;;5096455;28;20412;-72
2024/03/11 07:25:34;;;;;;;46.47;22.85;;;7.30;99.90;;;;;;5096229;28;20078;-72
2024/03/11 07:28:00;;;;;;;44.03;22.27;;;7.40;99.90;;;;;;5095628;28;20036;-72
2024/03/11 07:30:26;;;;;;;49.47;23.17;;;7.50;99.90;;;;;;5097156;28;20037;-73
2024/03/11 07:33:08;;;;;;;52.85;23.20;;;7.50;99.90;;;;;;5094750;28;20375;-72
2024/03/11 07:35:41;;;;;;;49.40;23.25;;;7.50;99.90;;;;;;5097766;28;20031;-72
2024/03/11 07:38:07;;;;;;;57.22;23.80;;;7.60;99.90;;;;;;5092100;28;20026;-72
2024/03/11 07:40:34;;;;;;;53.42;22.90;;;7.60;99.90;;;;;;5097564;28;20130;-71
2024/03/11 07:43:00;;;;;;;52.33;23.38;;;7.60;99.90;;;;;;5090654;28;20112;-71
2024/03/11 07:45:26;;;;;;;48.38;22.67;;;7.60;99.90;;;;;;5094192;28;20055;-72
2024/03/11 07:47:55;;;;;;;48.17;23.23;;;7.70;99.90;;;;;;5100479;28;20059;-73
2024/03/11 07:50:22;;;;;;;46.80;24.20;;;7.70;99.90;;;;;;5096568;28;20032;-72
2024/03/11 07:52:49;;;;;;;52.72;23.92;;;7.70;99.90;;;;;;5097565;28;20024;-72
2024/03/11 07:55:15;;;;;;;52.08;22.77;;;7.70;99.90;;;;;;5099176;28;20031;-72
2024/03/11 07:57:41;;;;;;;53.28;24.40;;;7.70;99.90;;;;;;5100471;28;20032;-72
2024/03/11 08:00:09;;;;;;;49.00;24.08;;;7.70;99.90;;;;;;5099063;28;20087;-73
2024/03/11 08:02:35;;;;;;;50.13;23.52;;;7.70;99.90;;;;;;5102626;28;20024;-73
2024/03/11 08:05:02;;;;;;;45.42;22.90;;;7.70;99.90;;;;;;5101999;28;20027;-71
2024/03/11 08:07:32;;;;;;;48.10;23.48;;;7.70;99.90;;;;;;5101963;28;20020;-72
2024/03/11 08:10:00;;;;;;;48.88;23.15;;;7.70;99.90;;;;;;5102181;28;20032;-72
2024/03/11 08:12:29;;;;;;;51.58;24.33;;;7.70;99.90;;;;;;5099837;28;20087;-72
2024/03/11 08:14:55;;;;;;;55.88;24.05;;;7.70;99.90;;;;;;5102134;28;20016;-72
2024/03/11 08:17:21;;;;;;;45.75;22.92;;;7.80;99.90;;;;;;5100347;28;20125;-72
2024/03/11 08:19:48;;;;;;;53.30;23.52;;;7.80;99.90;;;;;;5102247;28;20026;-72
2024/03/11 08:22:16;;;;;;;53.60;23.50;;;7.80;99.90;;;;;;5101115;28;20020;-72
2024/03/11 08:24:42;;;;;;;54.90;24.52;;;7.80;99.90;;;;;;5100141;28;20040;-73
2024/03/11 08:27:07;;;;;;;47.65;23.80;;;7.90;99.90;;;;;;5098100;28;20111;-72
2024/03/11 08:29:34;;;;;;;46.22;23.45;;;7.90;99.90;;;;;;5100453;28;20056;-72
2024/03/11 08:32:01;;;;;;;49.33;23.27;;;7.90;99.90;;;;;;5097586;28;20066;-71
2024/03/11 08:34:27;;;;;;;46.38;23.20;;;7.90;99.90;;;;;;5098209;28;20032;-72
2024/03/11 08:36:53;;;;;;;46.20;22.23;;;8.00;99.90;;;;;;5101066;28;20012;-72
2024/03/11 08:39:21;;;;;;;50.17;23.75;;;8.00;99.90;;;;;;5099921;28;20031;-72
2024/03/11 08:41:47;;;;;;;54.97;24.20;;;8.00;99.90;;;;;;5098985;28;20028;-72
2024/03/11 08:44:14;;;;;;;52.95;24.92;;;8.00;99.90;;;;;;5095322;28;20020;-73
2024/03/11 08:46:43;;;;;;;46.67;22.90;;;8.00;99.90;;;;;;5096059;28;20032;-72
2024/03/11 08:49:11;;;;;;;49.70;23.65;;;8.00;99.90;;;;;;5096792;28;20085;-71
2024/03/11 08:51:40;;;;;;;50.47;23.83;;;8.00;99.90;;;;;;5100278;28;20039;-72
2024/03/11 08:54:09;;;;;;;46.92;23.60;;;8.00;99.90;;;;;;5099915;28;20023;-73
2024/03/11 08:56:36;;;;;;;46.97;23.33;;;8.00;99.90;;;;;;5101216;28;20096;-73
2024/03/11 08:59:10;;;;;;;51.35;24.27;;;8.00;99.90;;;;;;5101117;28;20047;-72
2024/03/11 09:01:40;;;;;;;;;;;8.00;99.90;;;;;;5100423;28;20027;-72
2024/03/11 09:04:12;;;;;;;48.90;22.63;;;8.00;99.90;;;;;;5103657;28;19984;-72
2024/03/11 09:06:43;;;;;;;46.42;23.55;;;8.00;99.90;;;;;;5104867;28;20028;-72
2024/03/11 09:09:09;;;;;;;47.50;24.55;;;8.10;99.90;;;;;;5105405;28;20039;-73
2024/03/11 09:11:37;;;;;;;50.58;23.63;;;8.10;99.90;;;;;;5105585;28;20035;-72
2024/03/11 09:14:04;;;;;;;51.15;24.35;;;8.20;99.90;;;;;;5101822;28;20394;-72
2024/03/11 09:16:29;;;;;;;50.60;24.38;;;8.20;99.90;;;;;;5104410;28;20035;-72
2024/03/11 09:18:55;;;;;;;50.03;24.67;;;8.30;99.90;;;;;;5101332;28;20139;-72
2024/03/11 09:21:21;;;;;;;46.28;23.02;;;8.30;99.90;;;;;;5096688;28;20024;-72
2024/03/11 09:23:48;;;;;;;50.75;23.77;;;8.30;99.90;;;;;;5104032;28;20020;-72
2024/03/11 09:26:14;;;;;;;50.33;23.48;;;8.40;99.90;;;;;;5103577;28;20473;-72
2024/03/11 09:28:39;;;;;;;46.70;23.48;;;8.50;99.90;;;;;;5104137;28;20051;-72
2024/03/11 09:31:05;;;;;;;49.58;23.15;;;8.50;99.90;;;;;;5103908;28;20016;-71
2024/03/11 09:33:31;;;;;;;46.35;22.70;;;8.50;99.90;;;;;;5105029;28;20028;-72
2024/03/11 09:35:58;;;;;;;48.83;24.45;;;8.50;99.90;;;;;;5104584;28;20012;-73
2024/03/11 09:38:25;;;;;;;46.03;23.38;;;8.60;99.90;;;;;;5103769;28;20024;-72
2024/03/11 09:40:52;;;;;;;44.17;23.05;;;8.60;99.90;;;;;;5102944;28;20040;-72
2024/03/11 09:43:18;;;;;;;49.47;24.23;;;8.70;99.90;;;;;;5104749;28;20095;-72
2024/03/11 09:45:45;;;;;;;46.50;24.05;;;8.70;99.90;;;;;;5099578;28;20024;-72
2024/03/11 09:48:11;;;;;;;50.53;23.73;;;8.70;99.90;;;;;;5099157;28;20065;-73
2024/03/11 09:50:40;;;;;;;43.70;22.23;;;8.70;99.90;;;;;;5103055;28;20485;-72
2024/03/11 09:53:18;;;;;;;45.38;23.13;;;8.60;99.90;;;;;;5104846;28;20016;-72
2024/03/11 09:55:44;;;;;;;50.72;23.77;;;8.60;99.90;;;;;;5098175;28;20032;-72
2024/03/11 09:58:12;;;;;;;47.65;23.83;;;8.60;99.90;;;;;;5098866;28;20122;-72
2024/03/11 10:00:50;;;;;;;45.85;23.25;;;8.60;99.90;;;;;;5102411;28;20020;-71
2024/03/11 10:03:20;;;;;;;43.97;23.67;;;8.70;99.90;;;;;;5102430;28;20016;-71
2024/03/11 10:05:46;;;;;;;46.90;24.42;;;8.70;99.90;;;;;;5103592;28;20062;-71
2024/03/11 10:08:18;;;;;;;42.60;22.58;;;8.70;99.90;;;;;;5103831;28;20412;-72
2024/03/11 10:11:28;;;;;;;49.53;23.92;;;8.80;99.90;;;;;;5102214;28;20020;-72
2024/03/11 10:13:56;;;;;;;50.33;23.50;;;8.90;99.90;;;;;;5099076;28;20034;-72
2024/03/11 10:16:27;;;;;;;45.40;24.00;;;8.90;99.90;;;;;;5099682;28;20026;-71
2024/03/11 10:19:00;;;;;;;51.92;24.08;;;8.90;99.90;;;;;;5102619;28;20031;-71
2024/03/11 10:21:28;;;;;;;50.38;23.13;;;9.00;99.90;;;;;;5102529;28;20525;-71
2024/03/11 10:23:58;;;;;;;47.50;24.20;;;9.00;99.90;;;;;;5102122;28;20016;-71
2024/03/11 10:26:33;;;;;;;48.05;23.88;;;9.10;99.90;;;;;;5103038;28;20018;-72
2024/03/11 10:29:00;;;;;;;49.53;25.27;;;9.20;99.90;;;;;;5101870;28;20489;-72
2024/03/11 10:31:33;;;;;;;50.45;25.48;;;9.30;99.90;;;;;;5100348;28;20020;-72
2024/03/11 10:34:21;;;;;;;51.67;25.45;;;9.30;99.90;;;;;;5098950;28;20077;-72
2024/03/11 10:36:55;;;;;;;45.53;24.48;;;9.40;99.90;;;;;;5100812;28;20035;-71
2024/03/11 10:41:49;;;;;;;50.97;24.92;;;9.40;99.90;;;;;;5097677;28;19908;-72
2024/03/11 10:44:16;;;;;;;51.40;24.95;;;9.40;99.90;;;;;;5091453;28;20038;-72
2024/03/11 10:46:43;;;;;;;47.78;25.30;;;9.40;99.90;;;;;;5096500;28;20028;-72
2024/03/11 10:49:12;;;;;;;48.08;24.95;;;9.40;99.90;;;;;;5100672;28;20036;-71
2024/03/11 10:51:47;;;;;;;44.72;24.30;;;9.50;99.90;;;;;;5099573;28;20024;-72
2024/03/11 10:54:31;;;;;;;48.75;25.95;;;9.60;99.90;;;;;;5096304;28;20031;-72
2024/03/11 10:56:58;;;;;;;43.15;23.95;;;9.60;99.90;;;;;;5098257;28;20036;-72
2024/03/11 10:59:29;;;;;;;49.35;25.48;;;9.80;99.90;;;;;;5096417;28;20404;-72
2024/03/11 11:02:04;;;;;;;43.03;23.98;;;9.80;99.90;;;;;;5100808;28;20032;-71
2024/03/11 11:04:33;;;;;;;53.15;25.60;;;10.00;99.90;;;;;;5098875;28;20017;-72
2024/03/11 11:07:02;;;;;;;48.65;25.02;;;10.10;99.90;;;;;;5098774;28;20021;-71
2024/03/11 11:09:29;;;;;;;44.92;24.40;;;10.10;99.90;;;;;;5100491;28;20069;-72
2024/03/11 11:11:56;;;;;;;39.55;22.35;;;10.10;99.90;;;;;;5099260;28;20578;-72
2024/03/11 11:14:24;;;;;;;48.15;24.35;;;10.10;99.90;;;;;;5095153;28;20089;-72
2024/03/11 11:16:51;;;;;;;42.97;24.13;;;10.10;99.90;;;;;;5096573;28;20352;-72
2024/03/11 11:19:23;;;;;;;42.42;23.73;;;10.20;99.90;;;;;;5098247;28;20026;-72
2024/03/11 11:21:50;;;;;;;44.10;24.75;;;10.20;99.90;;;;;;5101409;28;20024;-73
2024/03/11 11:24:40;;;;;;;43.20;23.85;;;10.30;99.90;;;;;;5102518;28;20040;-71
2024/03/11 11:27:13;;;;;;;43.33;24.25;;;10.40;99.90;;;;;;5100040;28;20035;-71
2024/03/11 11:29:39;;;;;;;43.80;23.65;;;10.50;99.90;;;;;;5100110;28;20111;-72
2024/03/11 11:32:11;;;;;;;42.65;23.75;;;10.60;99.90;;;;;;5097156;28;20090;-71
2024/03/11 11:34:45;;;;;;;38.45;23.08;;;10.70;99.90;;;;;;5095369;28;22145;-71
2024/03/11 11:37:34;;;;;;;41.47;23.60;;;10.90;99.90;;;;;;5089508;28;20028;-71
2024/03/11 11:40:36;;;;;;;45.28;24.20;;;10.90;99.90;;;;;;5092923;28;20020;-71
2024/03/11 11:43:02;;;;;;;44.25;24.58;;;11.00;99.90;;;;;;5036879;28;20057;-71
2024/03/11 11:45:47;;;;;;;41.80;24.10;;;11.00;99.90;;;;;;5086110;28;20060;-71
2024/03/11 11:48:25;;;;;;;45.05;24.00;;;11.00;99.90;;;;;;5098298;28;20047;-70
2024/03/11 11:50:52;;;;;;;45.42;24.08;;;11.00;99.90;;;;;;5099262;28;20031;-72
2024/03/11 11:53:27;;;;;;;45.42;25.17;;;11.00;99.90;;;;;;5097744;28;20020;-72
2024/03/11 11:55:53;;;;;;;44.17;24.33;;;11.00;99.90;;;;;;5098068;28;20031;-71
2024/03/11 11:58:18;;;;;;;45.67;24.75;;;11.00;99.90;;;;;;5100282;28;20028;-72
2024/03/11 12:00:44;;;;;;;46.72;26.08;;;11.00;99.90;;;;;;5101815;28;20028;-73
2024/03/11 12:03:43;;;;;;;48.80;25.70;;;10.90;99.90;;;;;;5100711;28;20024;-71
2024/03/11 12:06:19;;;;;;;45.17;25.60;;;10.80;99.90;;;;;;5076936;28;20051;-72
2024/03/11 12:08:52;;;;;;;44.40;24.35;;;10.80;99.90;;;;;;5099985;28;20058;-72
2024/03/11 12:11:19;;;;;;;43.55;25.25;;;10.70;99.90;;;;;;5100587;28;20024;-72
2024/03/11 12:13:46;;;;;;;43.85;25.05;;;10.70;99.90;;;;;;5092929;28;20024;-72
2024/03/11 12:16:25;;;;;;;41.90;23.90;;;10.70;99.90;;;;;;5095329;28;20028;-72
2024/03/11 12:19:01;;;;;;;45.47;25.27;;;10.60;99.90;;;;;;5098394;28;20020;-72
2024/03/11 12:21:28;;;;;;;47.90;26.27;;;10.60;99.90;;;;;;5100926;28;20020;-72
2024/03/11 12:23:54;;;;;;;46.58;25.27;;;10.70;99.90;;;;;;5100917;28;20069;-72
2024/03/11 12:26:21;;;;;;;50.72;26.70;;;10.70;99.90;;;;;;5099262;28;20074;-72
2024/03/11 12:29:07;;;;;;;45.47;26.70;;;10.70;99.90;;;;;;5100867;28;20043;-72
2024/03/11 12:31:37;;;;;;;43.65;25.30;;;10.80;99.90;;;;;;5104635;28;20058;-72
2024/03/11 12:34:10;;;;;;;49.25;25.65;;;10.90;99.90;;;;;;5101292;28;20020;-72
2024/03/11 12:36:40;;;;;;;46.03;26.23;;;11.00;99.90;;;;;;5101638;28;20031;-72
2024/03/11 12:39:34;;;;;;;44.55;25.27;;;11.20;99.90;;;;;;5104035;28;20056;-72
2024/03/11 12:42:00;;;;;;;44.05;26.00;;;11.40;99.90;;;;;;5101732;28;20051;-72
2024/03/11 12:44:27;;;;;;;48.95;26.65;;;11.60;99.90;;;;;;5101628;28;20552;-72